createdAt,value
2023-12-20T07:15:37.172Z,47.23
2023-12-20T07:16:08.260Z,47.28
2023-12-20T07:16:38.019Z,45.11
2023-12-20T07:17:08.193Z,46.00
2023-12-20T07:17:38.404Z,45.51
2023-12-20T07:18:08.571Z,44.57
2023-12-20T07:18:38.473Z,46.12
2023-12-20T07:19:08.681Z,46.47
2023-12-20T07:19:38.458Z,46.92
2023-12-20T07:20:08.338Z,46.49
2023-12-20T07:20:44.759Z,45.51
2023-12-20T07:21:15.835Z,47.27
2023-12-20T07:21:45.869Z,47.39
2023-12-20T07:22:16.066Z,44.96
2023-12-20T07:22:45.968Z,46.04
2023-12-20T07:23:15.928Z,43.43
2023-12-20T07:23:46.195Z,44.99
2023-12-20T07:24:16.262Z,43.88
2023-12-20T07:24:46.194Z,47.06
2023-12-20T07:25:16.377Z,47.04
2023-12-20T07:25:46.309Z,48.75
2023-12-20T07:26:16.803Z,49.62
2023-12-20T07:26:46.295Z,50.72
2023-12-20T07:27:16.418Z,49.88
2023-12-20T07:27:46.647Z,53.28
2023-12-20T07:28:16.703Z,48.24
2023-12-20T07:28:46.478Z,49.53
2023-12-20T07:29:16.488Z,49.43
2023-12-20T07:29:46.509Z,47.19
2023-12-20T07:30:16.609Z,46.40
2023-12-20T07:30:47.005Z,49.13
2023-12-20T07:31:16.917Z,48.83
2023-12-20T07:31:46.897Z,48.97
2023-12-20T07:32:16.733Z,49.52
2023-12-20T07:32:46.774Z,47.41
2023-12-20T07:33:17.248Z,43.99
2023-12-20T07:33:46.974Z,47.85
2023-12-20T07:34:17.218Z,46.38
2023-12-20T07:34:47.008Z,46.05
2023-12-20T07:35:17.378Z,46.23
2023-12-20T07:35:47.152Z,48.41
2023-12-20T07:36:17.386Z,54.13
2023-12-20T07:36:47.100Z,44.54
2023-12-20T07:37:17.453Z,46.16
2023-12-20T07:37:47.399Z,48.76
2023-12-20T07:38:17.252Z,49.10
2023-12-20T07:38:47.235Z,49.10
2023-12-20T07:39:17.404Z,49.68
2023-12-20T07:39:47.433Z,48.48
2023-12-20T07:40:17.649Z,49.95
2023-12-20T07:40:47.493Z,51.17
2023-12-20T07:41:17.518Z,49.46
2023-12-20T07:41:47.522Z,49.02
2023-12-20T07:42:17.585Z,52.27
2023-12-20T07:42:47.614Z,54.64
2023-12-20T07:43:17.817Z,47.40
2023-12-20T07:43:47.702Z,50.35
2023-12-20T07:44:17.840Z,54.83
2023-12-20T07:44:47.980Z,56.29
2023-12-20T07:45:17.923Z,56.92
2023-12-20T07:45:48.149Z,65.46
2023-12-20T07:46:18.262Z,57.69
2023-12-20T07:46:48.102Z,54.01
2023-12-20T07:47:18.113Z,53.47
2023-12-20T07:47:48.416Z,58.43
2023-12-20T07:48:18.172Z,59.38
2023-12-20T07:48:48.374Z,47.60
2023-12-20T07:49:18.383Z,48.70
2023-12-20T07:49:48.370Z,49.55
2023-12-20T07:50:18.429Z,53.24
2023-12-20T07:50:48.402Z,61.15
2023-12-20T07:51:18.809Z,57.64
2023-12-20T07:51:48.541Z,58.39
2023-12-20T07:52:18.794Z,58.35
2023-12-20T07:52:48.644Z,58.08
2023-12-20T07:53:18.865Z,63.15
2023-12-20T07:53:48.653Z,62.65
2023-12-20T07:54:18.705Z,62.29
2023-12-20T07:54:48.931Z,56.62
2023-12-20T07:55:19.059Z,46.25
2023-12-20T07:55:48.842Z,46.31
2023-12-20T07:56:18.876Z,58.06
2023-12-20T07:56:48.911Z,48.06
2023-12-20T07:57:19.104Z,51.10
2023-12-20T07:57:49.327Z,44.73
2023-12-20T07:58:19.260Z,42.54
2023-12-20T07:58:52.519Z,49.30
2023-12-20T07:59:25.729Z,44.75
2023-12-20T07:59:49.195Z,57.17
2023-12-20T08:00:19.578Z,48.02
2023-12-20T08:00:49.641Z,51.23
2023-12-20T08:01:19.559Z,47.58
2023-12-20T08:01:49.549Z,50.03
2023-12-20T08:02:19.730Z,49.34
2023-12-20T08:02:49.666Z,49.41
2023-12-20T08:03:19.666Z,50.49
2023-12-20T08:03:50.194Z,47.58
2023-12-20T08:04:19.890Z,46.89
2023-12-20T08:04:50.045Z,45.77
2023-12-20T08:05:20.066Z,48.33
2023-12-20T08:05:50.137Z,42.43
2023-12-20T08:06:20.210Z,49.82
2023-12-20T08:06:50.651Z,49.97
2023-12-20T08:07:20.342Z,50.87
2023-12-20T08:07:50.393Z,49.67
2023-12-20T08:08:20.401Z,55.06
2023-12-20T08:08:55.882Z,52.07
2023-12-20T08:09:20.782Z,52.07
2023-12-20T08:09:50.939Z,51.56
2023-12-20T08:10:20.881Z,48.44
2023-12-20T08:10:50.451Z,44.47
2023-12-20T08:11:20.985Z,40.94
2023-12-20T08:11:50.907Z,47.16
2023-12-20T08:12:20.854Z,45.83
2023-12-20T08:12:51.082Z,49.20
2023-12-20T08:13:20.952Z,49.83
2023-12-20T08:13:51.356Z,47.43
2023-12-20T08:14:21.080Z,47.09
2023-12-20T08:14:51.060Z,51.78
2023-12-20T08:15:21.242Z,46.31
2023-12-20T08:15:51.390Z,49.75
2023-12-20T08:16:21.279Z,55.74
2023-12-20T08:16:51.305Z,40.03
2023-12-20T08:17:21.630Z,40.19
2023-12-20T08:17:51.403Z,41.41
2023-12-20T08:18:21.414Z,41.10
2023-12-20T08:18:51.705Z,40.57
2023-12-20T08:19:21.589Z,40.84
2023-12-20T08:19:51.785Z,41.21
2023-12-20T08:20:26.885Z,48.05
2023-12-20T08:20:51.630Z,41.60
2023-12-20T08:21:21.698Z,42.24
2023-12-20T08:21:51.842Z,42.52
2023-12-20T08:22:21.709Z,44.49
2023-12-20T08:22:51.793Z,43.22
2023-12-20T08:23:22.824Z,43.95
2023-12-20T08:23:51.955Z,49.06
2023-12-20T08:24:22.195Z,44.81
2023-12-20T08:24:52.142Z,42.78
2023-12-20T08:25:22.199Z,44.63
2023-12-20T08:25:52.111Z,43.82
2023-12-20T08:26:22.123Z,47.98
2023-12-20T08:26:52.360Z,52.60
2023-12-20T08:27:22.113Z,47.43
2023-12-20T08:27:52.419Z,43.44
2023-12-20T08:28:22.314Z,44.63
2023-12-20T08:28:52.355Z,46.18
2023-12-20T08:29:22.535Z,50.52
2023-12-20T08:29:52.501Z,45.16
2023-12-20T08:30:22.575Z,49.49
2023-12-20T08:30:52.968Z,48.99
2023-12-20T08:31:22.931Z,51.44
2023-12-20T08:31:52.696Z,54.97
2023-12-20T08:32:23.062Z,53.34
2023-12-20T08:32:53.208Z,51.21
2023-12-20T08:33:22.921Z,55.03
2023-12-20T08:33:53.199Z,57.48
2023-12-20T08:34:22.971Z,64.92
2023-12-20T08:34:53.066Z,64.88
2023-12-20T08:35:22.993Z,66.57
2023-12-20T08:35:53.215Z,64.68
2023-12-20T08:36:23.038Z,65.43
2023-12-20T08:36:53.557Z,62.82
2023-12-20T08:37:23.156Z,61.88
2023-12-20T08:37:53.050Z,63.98
2023-12-20T08:38:23.155Z,63.97
2023-12-20T08:38:53.230Z,64.97
2023-12-20T08:39:23.257Z,63.14
2023-12-20T08:39:53.499Z,65.41
2023-12-20T08:40:23.528Z,67.74
2023-12-20T08:40:53.319Z,66.04
2023-12-20T08:41:23.307Z,65.48
2023-12-20T08:41:53.458Z,65.75
2023-12-20T08:42:23.457Z,65.47
2023-12-20T08:42:53.805Z,61.66
2023-12-20T08:43:23.715Z,65.26
2023-12-20T08:43:53.689Z,64.01
2023-12-20T08:44:23.732Z,64.48
2023-12-20T08:44:53.764Z,62.29
2023-12-20T08:45:24.393Z,58.51
2023-12-20T08:45:54.004Z,60.44
2023-12-20T08:46:24.229Z,57.08
2023-12-20T08:46:54.064Z,59.34
2023-12-20T08:47:24.113Z,59.25
2023-12-20T08:47:54.214Z,59.05
2023-12-20T08:48:24.256Z,59.75
2023-12-20T08:48:54.587Z,63.19
2023-12-20T08:49:24.680Z,64.52
2023-12-20T08:49:54.536Z,61.86
2023-12-20T08:50:24.587Z,60.23
2023-12-20T08:50:54.532Z,62.68
2023-12-20T08:51:24.584Z,64.53
2023-12-20T08:51:54.871Z,70.48
2023-12-20T08:52:24.670Z,68.53
2023-12-20T08:52:54.747Z,65.98
2023-12-20T08:53:24.776Z,66.86
2023-12-20T08:53:54.808Z,71.12
2023-12-20T08:54:24.785Z,66.27
2023-12-20T08:54:55.132Z,64.72
2023-12-20T08:55:25.057Z,65.72
2023-12-20T08:55:54.942Z,64.75
2023-12-20T08:56:26.079Z,67.30
2023-12-20T08:56:55.042Z,63.03
2023-12-20T08:57:25.073Z,65.47
2023-12-20T08:57:55.360Z,58.59
2023-12-20T08:58:25.462Z,63.48
2023-12-20T08:58:55.238Z,61.10
2023-12-20T08:59:25.461Z,60.71
2023-12-20T08:59:55.438Z,58.05
2023-12-20T09:00:25.403Z,61.17
2023-12-20T09:00:55.655Z,60.97
2023-12-20T09:01:25.536Z,56.71
2023-12-20T09:01:55.706Z,54.25
2023-12-20T09:02:25.585Z,41.22
2023-12-20T09:02:55.669Z,41.28
2023-12-20T09:03:25.653Z,37.31
2023-12-20T09:03:56.152Z,38.03
2023-12-20T09:04:25.944Z,41.28
2023-12-20T09:04:55.784Z,54.69
2023-12-20T09:05:26.151Z,57.20
2023-12-20T09:05:56.334Z,44.09
2023-12-20T09:06:25.992Z,41.99
2023-12-20T09:06:56.228Z,40.67
2023-12-20T09:07:26.030Z,51.13
2023-12-20T09:07:56.044Z,47.76
2023-12-20T09:08:26.244Z,39.83
2023-12-20T09:08:56.240Z,41.05
2023-12-20T09:09:26.134Z,37.65
2023-12-20T09:09:56.602Z,38.26
2023-12-20T09:10:26.275Z,36.44
2023-12-20T09:10:56.182Z,34.95
2023-12-20T09:11:26.310Z,38.31
2023-12-20T09:11:56.378Z,36.87
2023-12-20T09:12:26.637Z,36.54
2023-12-20T09:12:56.612Z,32.90
2023-12-20T09:13:26.522Z,36.12
2023-12-20T09:13:56.512Z,33.41
2023-12-20T09:14:26.596Z,35.42
2023-12-20T09:14:56.804Z,33.93
2023-12-20T09:15:26.611Z,35.08
2023-12-20T09:15:57.539Z,36.87
2023-12-20T09:16:27.143Z,36.06
2023-12-20T09:16:56.734Z,41.89
2023-12-20T09:17:27.217Z,39.74
2023-12-20T09:17:56.973Z,38.57
2023-12-20T09:18:27.106Z,38.41
2023-12-20T09:18:57.171Z,35.47
2023-12-20T09:19:27.035Z,37.78
2023-12-20T09:19:57.084Z,37.95
2023-12-20T09:20:27.279Z,38.59
2023-12-20T09:20:57.212Z,37.36
2023-12-20T09:21:27.113Z,36.66
2023-12-20T09:21:57.322Z,35.69
2023-12-20T09:22:27.236Z,36.95
2023-12-20T09:22:57.415Z,36.33
2023-12-20T09:23:27.255Z,35.90
2023-12-20T09:23:57.301Z,36.54
2023-12-20T09:24:27.311Z,36.23
2023-12-20T09:24:57.496Z,36.17
2023-12-20T09:25:27.855Z,36.12
2023-12-20T09:25:58.344Z,33.68
2023-12-20T09:26:29.029Z,35.05
2023-12-20T09:26:57.727Z,32.14
2023-12-20T09:27:27.613Z,35.11
2023-12-20T09:27:57.913Z,39.17
2023-12-20T09:28:27.854Z,33.96
2023-12-20T09:28:58.440Z,32.71
2023-12-20T09:29:27.969Z,36.81
2023-12-20T09:29:58.183Z,32.53
2023-12-20T09:30:28.363Z,33.87
2023-12-20T09:30:58.233Z,38.34
2023-12-20T09:31:28.147Z,33.21
2023-12-20T09:31:58.360Z,33.79
2023-12-20T09:32:28.569Z,34.25
2023-12-20T09:32:58.265Z,32.60
2023-12-20T09:33:28.312Z,35.16
2023-12-20T09:33:58.508Z,33.40
2023-12-20T09:34:28.525Z,31.91
2023-12-20T09:34:58.582Z,32.37
2023-12-20T09:35:28.889Z,34.20
2023-12-20T09:35:58.672Z,31.76
2023-12-20T09:36:28.508Z,31.87
2023-12-20T09:36:58.845Z,32.26
2023-12-20T09:37:28.876Z,32.29
2023-12-20T09:37:59.019Z,31.23
2023-12-20T09:38:28.839Z,32.99
2023-12-20T09:38:59.028Z,33.61
2023-12-20T09:39:28.999Z,31.82
2023-12-20T09:39:59.617Z,31.52
2023-12-20T09:40:29.237Z,32.30
2023-12-20T09:40:59.186Z,32.31
2023-12-20T09:41:29.193Z,33.13
2023-12-20T09:41:59.205Z,36.47
2023-12-20T09:42:29.528Z,42.94
2023-12-20T09:42:59.576Z,34.39
2023-12-20T09:43:29.949Z,32.81
2023-12-20T09:43:59.439Z,35.05
2023-12-20T09:44:29.465Z,33.63
2023-12-20T09:44:59.551Z,33.28
2023-12-20T09:45:29.610Z,34.98
2023-12-20T09:45:59.864Z,34.91
2023-12-20T09:46:29.867Z,45.32
2023-12-20T09:46:59.691Z,34.70
2023-12-20T09:47:29.701Z,46.82
2023-12-20T09:47:59.749Z,47.90
2023-12-20T09:48:30.080Z,41.53
2023-12-20T09:49:00.241Z,39.46
2023-12-20T09:49:30.033Z,40.31
2023-12-20T09:49:59.963Z,42.44
2023-12-20T09:50:29.992Z,42.01
2023-12-20T09:50:59.992Z,57.92
2023-12-20T09:51:30.072Z,52.59
2023-12-20T09:52:00.381Z,59.51
2023-12-20T09:52:30.317Z,57.59
2023-12-20T09:53:00.304Z,48.40
2023-12-20T09:53:30.653Z,52.83
2023-12-20T09:54:00.683Z,49.43
2023-12-20T09:54:30.516Z,53.96
2023-12-20T09:55:00.824Z,48.56
2023-12-20T09:55:30.897Z,52.41
2023-12-20T09:56:00.686Z,59.91
2023-12-20T09:56:30.660Z,50.45
2023-12-20T09:57:00.814Z,34.87
2023-12-20T09:57:31.311Z,36.95
2023-12-20T09:58:01.137Z,37.21
2023-12-20T09:58:31.012Z,35.84
2023-12-20T09:59:01.036Z,36.84
2023-12-20T09:59:31.180Z,37.06
2023-12-20T10:00:01.397Z,38.10
2023-12-20T10:00:31.625Z,38.36
2023-12-20T10:01:01.682Z,34.93
2023-12-20T10:01:31.607Z,34.91
2023-12-20T10:02:01.413Z,35.87
2023-12-20T10:02:31.368Z,35.99
2023-12-20T10:03:01.530Z,43.60
2023-12-20T10:03:31.402Z,39.47
2023-12-20T10:04:31.710Z,38.99
2023-12-20T10:05:01.859Z,40.65
2023-12-20T10:05:31.845Z,37.91
2023-12-20T10:06:01.870Z,41.06
2023-12-20T10:06:32.051Z,45.39
2023-12-20T10:07:03.435Z,42.15
2023-12-20T10:07:32.097Z,41.63
2023-12-20T10:08:02.625Z,42.71
2023-12-20T10:08:32.131Z,45.11
2023-12-20T10:09:01.883Z,37.64
2023-12-20T10:09:32.042Z,40.60
2023-12-20T10:10:02.096Z,37.39
2023-12-20T10:10:38.794Z,37.40
2023-12-20T10:11:02.246Z,36.49
2023-12-20T10:11:32.473Z,40.37
2023-12-20T10:12:02.293Z,44.81
2023-12-20T10:12:32.346Z,45.20
2023-12-20T10:13:02.582Z,38.50
2023-12-20T10:13:32.435Z,38.81
2023-12-20T10:14:02.460Z,40.13
2023-12-20T10:14:32.502Z,44.59
2023-12-20T10:15:02.524Z,38.90
2023-12-20T10:15:32.696Z,40.20
2023-12-20T10:16:02.860Z,40.70
2023-12-20T10:16:32.876Z,40.35
2023-12-20T10:17:02.618Z,39.05
2023-12-20T10:17:32.771Z,43.05
2023-12-20T10:18:02.939Z,37.67
2023-12-20T10:18:38.259Z,39.31
2023-12-20T10:19:02.975Z,42.80
2023-12-20T10:19:32.919Z,36.19
2023-12-20T10:20:02.880Z,37.81
2023-12-20T10:20:33.261Z,36.17
2023-12-20T10:21:03.246Z,32.82
2023-12-20T10:21:33.113Z,32.99
2023-12-20T10:22:03.712Z,33.25
2023-12-20T10:22:33.269Z,32.68
2023-12-20T10:23:05.790Z,37.96
2023-12-20T10:23:33.348Z,37.85
2023-12-20T10:24:03.608Z,37.95
2023-12-20T10:24:33.600Z,36.16
2023-12-20T10:25:03.865Z,56.60
2023-12-20T10:25:33.748Z,53.97
2023-12-20T10:26:04.317Z,57.83
2023-12-20T10:26:33.693Z,63.10
2023-12-20T10:27:03.738Z,64.61
2023-12-20T10:27:33.954Z,62.23
2023-12-20T10:28:03.757Z,64.37
2023-12-20T10:28:34.043Z,61.22
2023-12-20T10:29:03.896Z,57.30
2023-12-20T10:29:34.759Z,61.30
2023-12-20T10:30:03.998Z,63.27
2023-12-20T10:30:34.227Z,64.83
2023-12-20T10:31:04.327Z,61.20
2023-12-20T10:31:34.291Z,60.29
2023-12-20T10:32:04.143Z,59.70
2023-12-20T10:32:34.230Z,61.42
2023-12-20T10:33:04.430Z,59.80
2023-12-20T10:33:34.682Z,63.37
2023-12-20T10:34:04.401Z,67.05
2023-12-20T10:34:34.435Z,60.99
2023-12-20T10:35:04.444Z,66.45
2023-12-20T10:35:34.422Z,66.15
2023-12-20T10:36:04.742Z,66.08
2023-12-20T10:36:34.813Z,67.80
2023-12-20T10:37:04.627Z,59.64
2023-12-20T10:37:34.716Z,63.83
2023-12-20T10:38:04.895Z,59.70
2023-12-20T10:38:34.822Z,70.69
2023-12-20T10:39:05.017Z,60.76
2023-12-20T10:39:35.012Z,62.23
2023-12-20T10:40:04.908Z,65.26
2023-12-20T10:40:35.206Z,60.35
2023-12-20T10:41:05.222Z,57.70
2023-12-20T10:41:35.027Z,59.51
2023-12-20T10:42:07.079Z,62.10
2023-12-20T10:42:35.503Z,62.78
2023-12-20T10:43:05.269Z,61.40
2023-12-20T10:43:35.280Z,63.44
2023-12-20T10:44:05.280Z,61.34
2023-12-20T10:44:35.268Z,63.28
2023-12-20T10:45:05.378Z,64.11
2023-12-20T10:45:35.554Z,63.20
2023-12-20T10:46:05.535Z,60.90
2023-12-20T10:46:35.596Z,63.94
2023-12-20T10:47:05.657Z,57.53
2023-12-20T10:47:37.477Z,61.74
2023-12-20T10:48:05.799Z,65.26
2023-12-20T10:48:35.970Z,61.52
2023-12-20T10:49:05.829Z,56.78
2023-12-20T10:49:36.013Z,61.95
2023-12-20T10:50:05.976Z,59.54
2023-12-20T10:50:36.253Z,62.65
2023-12-20T10:51:05.971Z,62.54
2023-12-20T10:51:36.113Z,63.01
2023-12-20T10:52:06.067Z,64.10
2023-12-20T10:52:36.236Z,79.72
2023-12-20T10:53:06.170Z,60.85
2023-12-20T10:53:36.189Z,62.45
2023-12-20T10:54:06.316Z,60.27
2023-12-20T10:54:36.416Z,56.99
2023-12-20T10:55:06.344Z,60.39
2023-12-20T10:55:36.433Z,63.56
2023-12-20T10:56:06.454Z,64.67
2023-12-20T10:56:36.401Z,65.21
2023-12-20T10:57:06.404Z,62.46
2023-12-20T10:57:36.614Z,63.02
2023-12-20T10:58:07.846Z,64.97
2023-12-20T10:58:36.608Z,69.81
2023-12-20T10:59:06.621Z,65.79
2023-12-20T10:59:36.672Z,68.37
2023-12-20T11:00:06.645Z,61.66
2023-12-20T11:00:37.129Z,57.02
2023-12-20T11:01:07.162Z,54.58
2023-12-20T11:01:37.180Z,55.62
2023-12-20T11:02:07.017Z,60.27
2023-12-20T11:02:37.154Z,59.87
2023-12-20T11:03:07.037Z,61.38
2023-12-20T11:03:37.402Z,62.50
2023-12-20T11:04:07.254Z,61.56
2023-12-20T11:04:37.324Z,62.19
2023-12-20T11:05:07.597Z,44.68
2023-12-20T11:05:37.410Z,47.45
2023-12-20T11:06:07.652Z,47.10
2023-12-20T11:06:37.641Z,44.79
2023-12-20T11:07:07.774Z,42.29
2023-12-20T11:07:37.721Z,41.02
2023-12-20T11:08:07.648Z,41.25
2023-12-20T11:08:37.671Z,37.09
2023-12-20T11:09:07.721Z,36.98
2023-12-20T11:09:37.945Z,36.48
2023-12-20T11:10:07.803Z,40.36
2023-12-20T11:10:38.125Z,38.03
2023-12-20T11:11:08.113Z,40.72
2023-12-20T11:11:37.816Z,34.55
2023-12-20T11:12:08.009Z,31.05
2023-12-20T11:12:38.084Z,31.16
2023-12-20T11:13:10.031Z,30.94
2023-12-20T11:13:38.562Z,37.74
2023-12-20T11:14:08.073Z,48.71
2023-12-20T11:14:38.473Z,43.97
2023-12-20T11:15:08.198Z,50.50
2023-12-20T11:15:38.498Z,35.06
2023-12-20T11:16:08.367Z,32.30
2023-12-20T11:16:44.970Z,30.12
2023-12-20T11:17:08.404Z,33.85
2023-12-20T11:17:38.505Z,30.65
2023-12-20T11:18:08.873Z,32.51
2023-12-20T11:18:38.528Z,31.08
2023-12-20T11:19:08.671Z,31.60
2023-12-20T11:19:38.612Z,31.44
2023-12-20T11:20:09.059Z,31.06
2023-12-20T11:20:38.813Z,29.82
2023-12-20T11:21:08.941Z,30.28
2023-12-20T11:21:38.747Z,31.00
2023-12-20T11:22:08.810Z,33.49
2023-12-20T11:22:41.605Z,31.79
2023-12-20T11:23:08.908Z,33.22
2023-12-20T11:23:38.901Z,31.19
2023-12-20T11:24:09.015Z,32.57
2023-12-20T11:24:38.908Z,36.38
2023-12-20T11:25:08.943Z,36.90
2023-12-20T11:25:38.982Z,35.52
2023-12-20T11:26:09.029Z,38.04
2023-12-20T11:26:39.078Z,43.20
2023-12-20T11:27:09.322Z,36.86
2023-12-20T11:27:39.102Z,31.23
2023-12-20T11:28:09.258Z,31.12
2023-12-20T11:28:39.236Z,45.45
2023-12-20T11:29:09.473Z,30.89
2023-12-20T11:29:39.250Z,31.96
2023-12-20T11:30:09.423Z,31.52
2023-12-20T11:30:39.326Z,35.29
2023-12-20T11:31:09.485Z,35.75
2023-12-20T11:31:39.461Z,38.22
2023-12-20T11:32:09.507Z,38.92
2023-12-20T11:32:39.566Z,32.11
2023-12-20T11:33:09.738Z,31.17
2023-12-20T11:33:40.036Z,33.43
2023-12-20T11:34:09.770Z,33.92
2023-12-20T11:34:39.875Z,35.20
2023-12-20T11:35:09.962Z,36.50
2023-12-20T11:35:39.942Z,43.53
2023-12-20T11:36:10.254Z,32.27
2023-12-20T11:36:40.277Z,32.07
2023-12-20T11:37:10.151Z,31.58
2023-12-20T11:37:40.206Z,31.60
2023-12-20T11:38:10.258Z,32.00
2023-12-20T11:38:40.420Z,30.88
2023-12-20T11:39:12.095Z,31.23
2023-12-20T11:39:40.507Z,43.33
2023-12-20T11:40:10.874Z,36.21
2023-12-20T11:40:40.492Z,32.15
2023-12-20T11:41:10.519Z,31.46
2023-12-20T11:41:40.690Z,39.58
2023-12-20T11:42:10.904Z,40.61
2023-12-20T11:42:40.933Z,32.03
2023-12-20T11:43:11.064Z,31.94
2023-12-20T11:43:40.844Z,33.73
2023-12-20T11:44:10.880Z,32.74
2023-12-20T11:44:40.884Z,36.23
2023-12-20T11:45:11.142Z,45.75
2023-12-20T11:45:41.059Z,58.69
2023-12-20T11:46:11.278Z,63.41
2023-12-20T11:46:41.216Z,63.54
2023-12-20T11:47:12.581Z,65.17
2023-12-20T11:47:41.468Z,66.35
2023-12-20T11:48:11.457Z,65.72
2023-12-20T11:48:41.242Z,60.78
2023-12-20T11:49:11.502Z,60.05
2023-12-20T11:49:41.571Z,52.54
2023-12-20T11:50:11.612Z,43.34
2023-12-20T11:50:41.598Z,44.79
2023-12-20T11:51:11.750Z,36.16
2023-12-20T11:51:41.700Z,32.79
2023-12-20T11:52:11.749Z,31.82
2023-12-20T11:52:42.023Z,32.73
2023-12-20T11:53:11.865Z,32.19
2023-12-20T11:53:41.928Z,30.84
2023-12-20T11:54:12.105Z,30.86
2023-12-20T11:54:41.962Z,31.67
2023-12-20T11:55:12.155Z,35.68
2023-12-20T11:55:42.213Z,32.25
2023-12-20T11:56:12.247Z,32.43
2023-12-20T11:56:42.297Z,31.30
2023-12-20T11:57:12.512Z,30.32
2023-12-20T11:57:42.524Z,29.95
2023-12-20T11:58:12.562Z,30.26
2023-12-20T11:58:42.535Z,31.51
2023-12-20T11:59:20.318Z,37.70
2023-12-20T11:59:42.640Z,30.92
2023-12-20T12:00:12.964Z,29.91
2023-12-20T12:00:42.900Z,30.07
2023-12-20T12:01:12.790Z,30.58
2023-12-20T12:01:42.831Z,29.21
2023-12-20T12:02:12.869Z,29.14
2023-12-20T12:02:44.984Z,29.43
2023-12-20T12:03:13.068Z,29.50
2023-12-20T12:03:42.856Z,29.31
2023-12-20T12:04:13.115Z,30.14
2023-12-20T12:04:43.405Z,29.79
2023-12-20T12:05:13.288Z,30.07
2023-12-20T12:05:43.222Z,32.66
2023-12-20T12:06:13.487Z,30.41
2023-12-20T12:06:43.368Z,31.70
2023-12-20T12:07:13.385Z,31.33
2023-12-20T12:07:43.848Z,32.43
2023-12-20T12:08:14.871Z,30.15
2023-12-20T12:08:43.484Z,30.07
2023-12-20T12:09:13.645Z,29.60
2023-12-20T12:09:43.579Z,31.48
2023-12-20T12:10:13.638Z,29.92
2023-12-20T12:10:43.681Z,30.00
2023-12-20T12:11:13.673Z,30.13
2023-12-20T12:11:44.052Z,30.13
2023-12-20T12:12:14.691Z,31.75
2023-12-20T12:12:44.174Z,30.01
2023-12-20T12:13:14.206Z,29.75
2023-12-20T12:13:44.113Z,31.27
2023-12-20T12:14:15.044Z,29.85
2023-12-20T12:14:44.212Z,29.88
2023-12-20T12:15:14.393Z,29.67
2023-12-20T12:15:44.720Z,30.55
2023-12-20T12:16:14.387Z,31.08
2023-12-20T12:16:44.510Z,30.25
2023-12-20T12:17:14.476Z,29.22
2023-12-20T12:17:44.693Z,29.40
2023-12-20T12:18:14.798Z,29.36
2023-12-20T12:18:44.626Z,29.32
2023-12-20T12:19:14.786Z,29.34
2023-12-20T12:19:44.909Z,29.30
2023-12-20T12:20:15.799Z,29.38
2023-12-20T12:20:45.004Z,29.93
2023-12-20T12:21:19.005Z,29.80
2023-12-20T12:21:45.114Z,29.51
2023-12-20T12:22:16.100Z,31.37
2023-12-20T12:22:45.632Z,31.20
2023-12-20T12:23:15.128Z,30.50
2023-12-20T12:23:45.140Z,29.89
2023-12-20T12:24:15.329Z,30.01
2023-12-20T12:24:45.314Z,30.27
2023-12-20T12:25:15.371Z,30.33
2023-12-20T12:25:45.334Z,30.64
2023-12-20T12:26:15.349Z,30.17
2023-12-20T12:26:45.436Z,29.91
2023-12-20T12:27:15.621Z,30.43
2023-12-20T12:27:45.740Z,30.36
2023-12-20T12:28:15.568Z,30.36
2023-12-20T12:28:45.834Z,31.05
2023-12-20T12:29:15.627Z,31.73
2023-12-20T12:29:45.639Z,45.46
2023-12-20T12:30:16.422Z,36.21
2023-12-20T12:30:50.371Z,40.19
2023-12-20T12:31:15.885Z,35.10
2023-12-20T12:31:46.089Z,37.35
2023-12-20T12:32:16.139Z,35.48
2023-12-20T12:32:45.942Z,37.25
2023-12-20T12:33:16.276Z,39.86
2023-12-20T12:33:46.254Z,50.91
2023-12-20T12:34:16.050Z,58.61
2023-12-20T12:34:46.069Z,58.79
2023-12-20T12:35:16.104Z,60.34
2023-12-20T12:35:46.149Z,57.70
2023-12-20T12:36:16.330Z,60.71
2023-12-20T12:36:48.234Z,59.60
2023-12-20T12:37:16.575Z,59.42
2023-12-20T12:37:46.598Z,58.68
2023-12-20T12:38:16.420Z,60.07
2023-12-20T12:38:46.414Z,53.38
2023-12-20T12:39:16.788Z,53.17
2023-12-20T12:39:46.644Z,60.04
2023-12-20T12:40:16.766Z,60.77
2023-12-20T12:40:46.897Z,58.54
2023-12-20T12:41:16.572Z,61.52
2023-12-20T12:41:46.755Z,56.97
2023-12-20T12:42:16.907Z,51.58
2023-12-20T12:42:46.917Z,51.19
2023-12-20T12:43:17.140Z,51.54
2023-12-20T12:43:46.920Z,52.51
2023-12-20T12:44:18.292Z,63.21
2023-12-20T12:44:47.092Z,59.42
2023-12-20T12:45:17.429Z,57.88
2023-12-20T12:45:47.201Z,55.23
2023-12-20T12:46:17.210Z,55.42
2023-12-20T12:46:47.146Z,58.22
2023-12-20T12:47:17.153Z,38.81
2023-12-20T12:47:47.516Z,47.70
2023-12-20T12:48:17.428Z,39.26
2023-12-20T12:48:47.809Z,44.17
2023-12-20T12:49:17.334Z,37.38
2023-12-20T12:49:47.459Z,34.80
2023-12-20T12:50:17.429Z,34.44
2023-12-20T12:50:47.415Z,34.80
2023-12-20T12:51:17.602Z,32.51
2023-12-20T12:51:47.603Z,32.88
2023-12-20T12:52:17.689Z,34.21
2023-12-20T12:52:47.833Z,40.37
2023-12-20T12:53:17.666Z,35.30
2023-12-20T12:53:47.858Z,33.87
2023-12-20T12:54:18.060Z,32.75
2023-12-20T12:54:47.872Z,33.71
2023-12-20T12:55:17.894Z,42.08
2023-12-20T12:55:47.911Z,34.91
2023-12-20T12:56:17.947Z,31.01
2023-12-20T12:56:47.941Z,32.74
2023-12-20T12:57:18.143Z,34.48
2023-12-20T12:57:58.423Z,31.96
2023-12-20T12:58:18.163Z,33.96
2023-12-20T12:58:48.247Z,31.29
2023-12-20T12:59:18.271Z,30.54
2023-12-20T12:59:48.354Z,30.79
2023-12-20T13:00:18.709Z,33.55
2023-12-20T13:00:48.470Z,32.05
2023-12-20T13:01:18.983Z,31.43
2023-12-20T13:01:48.769Z,32.88
2023-12-20T13:02:18.571Z,32.40
2023-12-20T13:02:48.902Z,32.54
2023-12-20T13:03:18.850Z,31.32
2023-12-20T13:03:48.884Z,31.49
2023-12-20T13:04:19.494Z,31.05
2023-12-20T13:04:48.989Z,32.01
2023-12-20T13:05:19.195Z,34.07
2023-12-20T13:05:49.136Z,32.56
2023-12-20T13:06:19.440Z,34.52
2023-12-20T13:06:49.263Z,32.43
2023-12-20T13:07:19.154Z,31.77
2023-12-20T13:07:49.805Z,34.33
2023-12-20T13:08:19.248Z,32.06
2023-12-20T13:08:49.440Z,35.80
2023-12-20T13:09:19.372Z,37.72
2023-12-20T13:09:49.605Z,34.30
2023-12-20T13:10:19.452Z,36.55
2023-12-20T13:10:49.691Z,32.23
2023-12-20T13:11:19.606Z,33.22
2023-12-20T13:11:51.421Z,33.30
2023-12-20T13:12:19.620Z,39.31
2023-12-20T13:12:49.693Z,33.95
2023-12-20T13:13:19.828Z,33.05
2023-12-20T13:13:50.249Z,33.95
2023-12-20T13:14:19.869Z,32.19
2023-12-20T13:14:49.924Z,32.88
2023-12-20T13:15:19.964Z,34.11
2023-12-20T13:15:49.962Z,39.75
2023-12-20T13:16:20.231Z,41.82
2023-12-20T13:16:50.289Z,41.40
2023-12-20T13:17:20.577Z,41.64
2023-12-20T13:17:50.482Z,40.59
2023-12-20T13:18:20.460Z,45.22
2023-12-20T13:18:50.710Z,45.75
2023-12-20T13:19:20.429Z,46.17
2023-12-20T13:19:50.649Z,44.34
2023-12-20T13:20:20.394Z,46.37
2023-12-20T13:20:50.448Z,42.10
2023-12-20T13:21:20.652Z,35.37
2023-12-20T13:21:50.478Z,35.44
2023-12-20T13:22:20.621Z,39.83
2023-12-20T13:22:50.721Z,50.82
2023-12-20T13:23:21.194Z,50.41
2023-12-20T13:23:50.723Z,51.29
2023-12-20T13:24:20.745Z,51.17
2023-12-20T13:24:50.790Z,49.18
2023-12-20T13:25:20.789Z,48.83
2023-12-20T13:25:51.016Z,58.95
2023-12-20T13:26:20.859Z,50.89
2023-12-20T13:26:51.165Z,49.91
2023-12-20T13:27:21.131Z,49.49
2023-12-20T13:27:51.197Z,49.89
2023-12-20T13:28:21.220Z,51.69
2023-12-20T13:28:51.355Z,69.88
2023-12-20T13:29:21.325Z,62.13
2023-12-20T13:29:51.356Z,49.48
2023-12-20T13:30:21.648Z,50.75
2023-12-20T13:30:51.676Z,49.96
2023-12-20T13:31:21.545Z,46.57
2023-12-20T13:31:51.848Z,49.29
2023-12-20T13:32:22.026Z,46.34
2023-12-20T13:32:52.273Z,48.97
2023-12-20T13:33:21.847Z,49.18
2023-12-20T13:33:51.816Z,46.46
2023-12-20T13:34:21.923Z,47.91
2023-12-20T13:34:52.270Z,56.39
2023-12-20T13:35:21.979Z,41.45
2023-12-20T13:35:52.202Z,39.11
2023-12-20T13:36:21.973Z,37.14
2023-12-20T13:36:52.211Z,34.27
2023-12-20T13:37:22.309Z,39.18
2023-12-20T13:37:52.416Z,33.88
2023-12-20T13:38:22.236Z,33.59
2023-12-20T13:38:52.365Z,34.15
2023-12-20T13:39:22.607Z,33.54
2023-12-20T13:39:52.432Z,32.13
2023-12-20T13:40:22.512Z,34.17
2023-12-20T13:40:52.638Z,33.04
2023-12-20T13:41:22.722Z,33.41
2023-12-20T13:41:52.649Z,33.14
2023-12-20T13:42:22.704Z,32.66
2023-12-20T13:42:52.724Z,31.14